Time;durP1;ratioP1;P1;durP2;ratioP2;P2;SDS_P1;SDS_P2;PMS_P1;PMS_P2;Temp;Humidity;BMP_temperature;BMP_pressure;BME280_temperature;BME280_humidity;BME280_pressure;Samples;Min_cycle;Max_cycle;Signal;HPM_P1;HPM_P2
2022/07/22 00:02:26;;;;;;;2.28;2.08;;;13.00;56.40;;;;;;5031388;28;20201;-45
2022/07/22 00:04:57;;;;;;;1.88;1.77;;;13.00;57.10;;;;;;5031533;28;20203;-48
2022/07/22 00:07:28;;;;;;;2.08;1.88;;;13.00;56.40;;;;;;5032038;28;20684;-47
2022/07/22 00:10:01;;;;;;;1.92;1.73;;;13.00;56.40;;;;;;5031263;28;20780;-48
2022/07/22 00:12:31;;;;;;;1.65;1.55;;;13.00;56.40;;;;;;5031916;28;20199;-46
2022/07/22 00:15:02;;;;;;;2.53;1.92;;;13.00;56.40;;;;;;5027445;28;20195;-44
2022/07/22 00:17:33;;;;;;;2.38;1.65;;;13.00;56.40;;;;;;5028529;28;20662;-44
2022/07/22 00:20:03;;;;;;;2.05;1.73;;;13.10;56.40;;;;;;5031814;28;20196;-52
2022/07/22 00:22:34;;;;;;;1.70;1.60;;;13.10;56.40;;;;;;5030683;28;20577;-48
2022/07/22 00:25:07;;;;;;;2.00;1.80;;;13.10;56.30;;;;;;5030111;28;20193;-46
2022/07/22 00:27:38;;;;;;;2.92;1.77;;;13.10;56.30;;;;;;5029027;28;20198;-59
2022/07/22 00:30:10;;;;;;;1.77;1.67;;;13.20;56.40;;;;;;5030921;28;20716;-51
2022/07/22 00:32:41;;;;;;;3.05;1.73;;;13.20;56.30;;;;;;5030318;28;20188;-51
2022/07/22 00:35:12;;;;;;;1.65;1.48;;;13.20;56.40;;;;;;5030695;28;20283;-54
2022/07/22 00:37:43;;;;;;;1.80;1.70;;;13.20;56.50;;;;;;5030916;28;20199;-47
2022/07/22 00:40:16;;;;;;;2.00;1.80;;;13.20;56.60;;;;;;5031015;28;20196;-59
2022/07/22 00:42:47;;;;;;;3.45;1.48;;;13.20;56.60;;;;;;5029939;28;20207;-49
2022/07/22 00:45:17;;;;;;;1.75;1.60;;;13.20;56.70;;;;;;5030409;28;20242;-60
2022/07/22 00:47:48;;;;;;;1.98;1.77;;;13.20;56.80;;;;;;5030575;28;20204;-55
2022/07/22 00:50:19;;;;;;;2.00;1.70;;;13.30;56.90;;;;;;5030766;28;20231;-55
2022/07/22 00:52:51;;;;;;;2.53;1.70;;;13.30;56.90;;;;;;5029556;28;20191;-54
2022/07/22 00:55:23;;;;;;;2.70;1.88;;;13.30;57.00;;;;;;5030057;28;20836;-54
2022/07/22 00:57:54;;;;;;;2.13;1.73;;;13.30;57.00;;;;;;5029987;28;20204;-57
2022/07/22 01:00:26;;;;;;;1.70;1.60;;;13.30;56.90;;;;;;5030161;28;20238;-59
2022/07/22 01:02:56;;;;;;;1.98;1.73;;;13.30;56.90;;;;;;5031222;28;20195;-51
2022/07/22 01:05:27;;;;;;;1.52;1.42;;;13.40;56.90;;;;;;5030220;28;20567;-53
2022/07/22 01:07:58;;;;;;;2.45;1.55;;;13.30;56.90;;;;;;5031045;28;20196;-45
2022/07/22 01:10:30;;;;;;;2.20;1.75;;;13.30;57.10;;;;;;5031000;28;20239;-55
2022/07/22 01:13:01;;;;;;;1.60;1.50;;;13.40;57.20;;;;;;5030130;28;20223;-48
2022/07/22 01:15:33;;;;;;;1.40;1.30;;;13.40;57.20;;;;;;5030251;28;20192;-47
2022/07/22 01:18:04;;;;;;;1.58;1.42;;;13.40;57.30;;;;;;5030622;28;20203;-49
2022/07/22 01:20:38;;;;;;;3.47;1.80;;;13.40;57.30;;;;;;5030487;28;20220;-44
2022/07/22 01:23:08;;;;;;;2.30;1.88;;;13.40;57.30;;;;;;5030090;28;20192;-54
2022/07/22 01:25:39;;;;;;;2.05;1.65;;;13.40;57.20;;;;;;5030356;28;20203;-55
2022/07/22 01:28:10;;;;;;;1.52;1.42;;;13.40;57.00;;;;;;5029788;28;20207;-52
2022/07/22 01:30:40;;;;;;;2.53;1.70;;;13.50;57.00;;;;;;5030859;28;20224;-57
2022/07/22 01:33:11;;;;;;;1.70;1.60;;;13.50;57.00;;;;;;5030315;28;20214;-48
2022/07/22 01:35:44;;;;;;;2.15;1.83;;;13.50;57.10;;;;;;5034189;28;20192;-48
2022/07/22 01:38:14;;;;;;;1.77;1.65;;;13.50;57.10;;;;;;5033450;28;20197;-57
2022/07/22 01:40:46;;;;;;;1.92;1.70;;;13.50;57.00;;;;;;5034556;28;20219;-48
2022/07/22 01:43:19;;;;;;;2.08;1.60;;;13.60;57.10;;;;;;5032889;28;20196;-46
2022/07/22 01:45:51;;;;;;;2.13;1.70;;;13.60;57.20;;;;;;5033761;28;20204;-47
2022/07/22 01:48:23;;;;;;;2.08;1.55;;;13.60;57.20;;;;;;5034003;28;20203;-47
2022/07/22 01:50:55;;;;;;;2.85;1.70;;;13.60;57.30;;;;;;5033255;28;20633;-51
2022/07/22 01:53:26;;;;;;;1.77;1.67;;;13.60;57.40;;;;;;5033598;28;20196;-45
2022/07/22 01:55:57;;;;;;;1.67;1.58;;;13.60;57.40;;;;;;5033483;28;20535;-47
2022/07/22 01:58:27;;;;;;;1.70;1.60;;;13.60;57.50;;;;;;5033354;28;20192;-53
2022/07/22 02:00:58;;;;;;;2.20;1.60;;;13.60;57.50;;;;;;5033436;28;20223;-49
2022/07/22 02:03:29;;;;;;;2.25;1.50;;;13.70;57.60;;;;;;5034129;28;20274;-51
2022/07/22 02:06:01;;;;;;;1.95;1.63;;;13.60;57.60;;;;;;5033388;28;20572;-57
2022/07/22 02:08:33;;;;;;;1.50;1.40;;;13.70;57.60;;;;;;5033261;28;20254;-48
2022/07/22 02:11:04;;;;;;;1.95;1.50;;;13.70;57.70;;;;;;5033927;28;20270;-60
2022/07/22 02:13:34;;;;;;;1.60;1.50;;;13.70;57.60;;;;;;5033608;28;20203;-55
2022/07/22 02:16:05;;;;;;;2.33;1.60;;;13.70;57.60;;;;;;5031295;28;20185;-49
2022/07/22 02:18:36;;;;;;;2.00;1.75;;;13.70;57.60;;;;;;5033275;28;20196;-54
2022/07/22 02:21:09;;;;;;;2.00;1.60;;;13.70;57.60;;;;;;5033916;28;20216;-57
2022/07/22 02:23:39;;;;;;;1.63;1.52;;;13.70;57.60;;;;;;5033309;28;20215;-58
2022/07/22 02:26:10;;;;;;;2.17;1.70;;;13.70;57.70;;;;;;5034022;28;20204;-50
2022/07/22 02:28:41;;;;;;;1.60;1.48;;;13.80;57.80;;;;;;5032830;28;20200;-57
2022/07/22 02:31:11;;;;;;;1.20;1.10;;;13.70;57.80;;;;;;5022167;28;20585;-46
2022/07/22 02:33:42;;;;;;;1.58;1.30;;;13.70;57.80;;;;;;5033170;28;20204;-50
2022/07/22 02:36:15;;;;;;;1.45;1.30;;;13.70;57.80;;;;;;5033270;28;20279;-48
2022/07/22 02:38:45;;;;;;;1.35;1.25;;;13.80;57.90;;;;;;5032836;28;20683;-54
2022/07/22 02:41:16;;;;;;;1.50;1.40;;;13.80;57.80;;;;;;5033056;28;20223;-57
2022/07/22 02:43:47;;;;;;;2.60;1.85;;;13.80;57.90;;;;;;5033323;28;20211;-53
2022/07/22 02:46:18;;;;;;;1.73;1.50;;;13.80;58.00;;;;;;5031270;28;20214;-54
2022/07/22 02:48:48;;;;;;;1.45;1.35;;;13.80;57.90;;;;;;5033155;28;20188;-50
2022/07/22 02:51:21;;;;;;;1.55;1.45;;;13.80;57.80;;;;;;5032854;28;20246;-50
2022/07/22 02:53:52;;;;;;;3.33;1.55;;;13.80;57.70;;;;;;5032281;28;20204;-50
2022/07/22 02:56:22;;;;;;;1.80;1.70;;;13.90;57.70;;;;;;5033297;28;20196;-50
2022/07/22 02:58:54;;;;;;;1.40;1.30;;;13.90;57.70;;;;;;5033145;28;20196;-49
2022/07/22 03:01:25;;;;;;;1.58;1.48;;;14.00;57.70;;;;;;5032833;28;20699;-45
2022/07/22 03:03:55;;;;;;;1.40;1.30;;;13.90;57.60;;;;;;5032423;28;20196;-54
2022/07/22 03:06:28;;;;;;;1.40;1.30;;;13.90;57.60;;;;;;5033057;28;20196;-48
2022/07/22 03:08:59;;;;;;;1.38;1.27;;;14.00;57.60;;;;;;5032251;28;20681;-49
2022/07/22 03:11:29;;;;;;;1.45;1.30;;;14.00;57.60;;;;;;5032551;28;20235;-46
2022/07/22 03:14:00;;;;;;;1.40;1.20;;;14.00;57.60;;;;;;5032432;28;20196;-53
2022/07/22 03:16:31;;;;;;;1.17;1.08;;;14.00;57.70;;;;;;5033033;28;20207;-52
2022/07/22 03:19:01;;;;;;;1.70;1.40;;;14.00;57.70;;;;;;5032555;28;20200;-47
2022/07/22 03:21:34;;;;;;;1.02;1.00;;;14.10;57.70;;;;;;5032294;28;20394;-49
2022/07/22 03:24:05;;;;;;;1.52;1.40;;;14.10;57.70;;;;;;5032137;28;20196;-45
2022/07/22 03:26:35;;;;;;;1.65;1.33;;;14.10;57.70;;;;;;5032528;28;20196;-46
2022/07/22 03:29:06;;;;;;;1.40;1.30;;;14.20;57.70;;;;;;5032622;28;20602;-51
2022/07/22 03:31:37;;;;;;;1.77;1.48;;;14.20;57.60;;;;;;5031805;28;20224;-51
2022/07/22 03:34:08;;;;;;;1.45;1.35;;;14.20;57.60;;;;;;5032629;28;20233;-57
2022/07/22 03:36:40;;;;;;;1.80;1.20;;;14.20;57.60;;;;;;5031816;28;20200;-58
2022/07/22 03:39:11;;;;;;;1.70;1.40;;;14.20;57.60;;;;;;5031036;28;20212;-61
2022/07/22 03:41:41;;;;;;;1.92;1.40;;;14.30;57.80;;;;;;5031708;28;20581;-58
2022/07/22 03:44:12;;;;;;;1.30;1.20;;;14.30;57.70;;;;;;5031683;28;20193;-54
2022/07/22 03:46:43;;;;;;;1.17;1.08;;;14.30;57.70;;;;;;5032138;28;20230;-54
2022/07/22 03:49:13;;;;;;;1.45;1.27;;;14.30;57.70;;;;;;5031870;28;20192;-57
2022/07/22 03:51:46;;;;;;;1.00;1.00;;;14.40;57.80;;;;;;5031523;28;20228;-49
2022/07/22 03:54:17;;;;;;;1.30;1.20;;;14.40;57.80;;;;;;5031609;28;20207;-57
2022/07/22 03:56:47;;;;;;;1.20;1.10;;;14.40;57.70;;;;;;5031540;28;20204;-50
2022/07/22 03:59:19;;;;;;;2.00;1.25;;;14.50;57.70;;;;;;5031649;28;20189;-61
2022/07/22 04:01:50;;;;;;;1.67;1.40;;;14.50;57.70;;;;;;5031773;28;20231;-57
2022/07/22 04:04:20;;;;;;;1.30;1.20;;;14.50;57.70;;;;;;5031397;28;20207;-56
2022/07/22 04:06:53;;;;;;;1.60;1.50;;;14.50;57.60;;;;;;5032173;28;20282;-47
2022/07/22 04:09:24;;;;;;;1.10;1.00;;;14.50;57.80;;;;;;5031769;28;20207;-44
2022/07/22 04:11:54;;;;;;;1.50;1.20;;;14.60;57.90;;;;;;5031793;28;20240;-54
2022/07/22 04:14:25;;;;;;;1.17;1.08;;;14.60;57.90;;;;;;5012140;28;20209;-60
2022/07/22 04:16:56;;;;;;;1.77;1.40;;;14.60;57.80;;;;;;5011724;28;20208;-50
2022/07/22 04:19:26;;;;;;;1.85;1.10;;;14.60;57.80;;;;;;5031960;28;20199;-59
2022/07/22 04:21:59;;;;;;;1.60;1.30;;;14.60;57.80;;;;;;5031351;28;20679;-59
2022/07/22 04:24:30;;;;;;;4.20;1.20;;;14.60;57.80;;;;;;5018396;28;20197;-49
2022/07/22 04:27:00;;;;;;;1.55;1.38;;;14.60;58.40;;;;;;5012087;28;20199;-58
2022/07/22 04:29:31;;;;;;;1.85;1.20;;;14.60;57.80;;;;;;5030800;28;20211;-45
2022/07/22 04:32:02;;;;;;;1.20;1.10;;;14.60;57.80;;;;;;5031149;28;20246;-54
2022/07/22 04:34:33;;;;;;;1.40;1.30;;;14.60;57.80;;;;;;5031213;28;20196;-51
2022/07/22 04:37:06;;;;;;;1.65;1.50;;;14.60;57.80;;;;;;5030330;28;20660;-56
2022/07/22 04:39:36;;;;;;;1.50;1.40;;;14.60;57.80;;;;;;5026104;28;20196;-60
2022/07/22 04:42:07;;;;;;;1.55;1.45;;;14.60;57.80;;;;;;5011363;28;20213;-61
2022/07/22 04:44:38;;;;;;;1.58;1.48;;;14.60;57.80;;;;;;5030121;28;20204;-59
2022/07/22 04:47:09;;;;;;;1.75;1.38;;;14.60;57.80;;;;;;5030526;28;20659;-53
2022/07/22 04:49:40;;;;;;;2.42;1.40;;;14.70;57.80;;;;;;5030560;28;20291;-49
2022/07/22 04:52:12;;;;;;;1.60;1.40;;;14.70;57.80;;;;;;5030419;28;20246;-56
2022/07/22 04:54:43;;;;;;;2.00;1.40;;;14.60;57.80;;;;;;5010422;28;20193;-51
2022/07/22 04:57:14;;;;;;;2.35;1.60;;;14.60;57.80;;;;;;5020662;28;20641;-44
2022/07/22 04:59:44;;;;;;;2.45;1.98;;;14.60;57.80;;;;;;5011169;28;20212;-46
2022/07/22 05:02:15;;;;;;;1.60;1.48;;;14.60;57.80;;;;;;5011136;28;20568;-46
2022/07/22 05:04:46;;;;;;;1.80;1.70;;;14.60;57.90;;;;;;5030929;28;20203;-59
2022/07/22 05:07:18;;;;;;;2.60;2.20;;;14.60;57.90;;;;;;5031073;28;20669;-53
2022/07/22 05:09:49;;;;;;;2.38;2.17;;;14.60;58.00;;;;;;5014560;28;20193;-55
2022/07/22 05:12:19;;;;;;;2.63;2.00;;;14.60;58.00;;;;;;5014439;28;20239;-59
2022/07/22 05:14:50;;;;;;;2.42;2.22;;;14.60;58.00;;;;;;5015623;28;20196;-53
2022/07/22 05:17:21;;;;;;;2.30;1.95;;;14.60;58.00;;;;;;5015455;28;20657;-53
2022/07/22 05:19:51;;;;;;;2.25;2.03;;;14.60;58.00;;;;;;5034096;28;20203;-55
2022/07/22 05:22:24;;;;;;;2.20;1.98;;;14.60;58.00;;;;;;5034697;28;20727;-50
2022/07/22 05:24:55;;;;;;;2.47;2.28;;;14.60;58.00;;;;;;5034781;28;20196;-47
2022/07/22 05:27:26;;;;;;;3.03;2.45;;;14.60;58.00;;;;;;5034640;28;20211;-51
2022/07/22 05:29:56;;;;;;;2.55;2.13;;;14.60;58.10;;;;;;5013705;28;20196;-54
2022/07/22 05:32:27;;;;;;;1.92;1.83;;;14.60;58.10;;;;;;5014987;28;20259;-59
2022/07/22 05:34:58;;;;;;;2.35;2.00;;;14.60;58.10;;;;;;5034036;28;20200;-57
2022/07/22 05:37:30;;;;;;;2.80;2.30;;;14.60;58.10;;;;;;5014904;28;20200;-54
2022/07/22 05:40:01;;;;;;;2.33;1.98;;;14.60;58.10;;;;;;5014447;28;20193;-53
2022/07/22 05:42:32;;;;;;;2.30;2.10;;;14.60;58.20;;;;;;5015118;28;20657;-58
2022/07/22 05:45:02;;;;;;;2.92;2.40;;;14.60;58.20;;;;;;5014685;28;20224;-51
2022/07/22 05:47:33;;;;;;;2.72;2.45;;;14.60;58.20;;;;;;5013911;28;20193;-54
2022/07/22 05:50:04;;;;;;;2.95;2.38;;;14.60;58.20;;;;;;5014272;28;20189;-59
2022/07/22 05:52:40;;;;;;;2.53;2.33;;;14.50;58.20;;;;;;5032289;28;20238;-55
2022/07/22 05:55:11;;;;;;;2.60;2.35;;;14.60;58.30;;;;;;5014179;28;20197;-54
2022/07/22 05:57:42;;;;;;;2.78;2.47;;;14.60;58.30;;;;;;5014166;28;20248;-58
2022/07/22 06:00:13;;;;;;;2.90;2.40;;;14.60;58.30;;;;;;5034465;28;20211;-58
2022/07/22 06:02:44;;;;;;;3.10;2.63;;;14.60;58.30;;;;;;5033895;28;20558;-53
2022/07/22 06:05:15;;;;;;;2.47;2.17;;;14.60;58.30;;;;;;5034631;28;20546;-47
2022/07/22 06:07:47;;;;;;;4.25;3.60;;;14.60;58.30;;;;;;5033211;28;20205;-45
2022/07/22 06:10:18;;;;;;;4.60;3.83;;;14.60;58.60;;;;;;5033790;28;20231;-48
2022/07/22 06:12:49;;;;;;;4.35;3.95;;;14.60;58.80;;;;;;5033597;28;20239;-45
2022/07/22 06:15:19;;;;;;;5.43;4.20;;;14.60;58.80;;;;;;5014022;28;20197;-50
2022/07/22 06:17:50;;;;;;;4.43;3.92;;;14.60;58.80;;;;;;5016514;28;20220;-44
2022/07/22 06:20:21;;;;;;;4.40;4.00;;;14.60;58.80;;;;;;5033014;28;20204;-51
2022/07/22 06:22:53;;;;;;;4.25;3.60;;;14.60;58.80;;;;;;5034088;28;20196;-47
2022/07/22 06:25:24;;;;;;;4.53;4.07;;;14.60;58.80;;;;;;5013522;28;20200;-49
2022/07/22 06:27:55;;;;;;;4.40;3.80;;;14.60;58.80;;;;;;5013449;28;20216;-48
2022/07/22 06:30:26;;;;;;;4.60;4.20;;;14.50;58.70;;;;;;5013330;28;20704;-50
2022/07/22 06:32:57;;;;;;;5.47;3.80;;;14.50;58.70;;;;;;5013698;28;20286;-44
2022/07/22 06:35:29;;;;;;;4.43;4.03;;;14.50;58.70;;;;;;5016768;28;20196;-46
2022/07/22 06:38:02;;;;;;;4.75;3.97;;;14.50;58.70;;;;;;5033601;28;20271;-44
2022/07/22 06:40:32;;;;;;;4.72;3.95;;;14.50;58.70;;;;;;5033094;28;20719;-45
2022/07/22 06:43:03;;;;;;;4.28;3.88;;;14.50;58.60;;;;;;5032773;28;20565;-50
2022/07/22 06:45:34;;;;;;;4.38;3.97;;;14.50;58.50;;;;;;5030325;28;20202;-48
2022/07/22 06:48:05;;;;;;;4.50;4.10;;;14.50;58.50;;;;;;5012393;28;20193;-46
2022/07/22 06:50:36;;;;;;;5.18;4.07;;;14.50;58.40;;;;;;5033196;28;20220;-46
2022/07/22 06:53:08;;;;;;;4.00;3.63;;;14.50;58.50;;;;;;5032604;28;20227;-44
2022/07/22 06:55:39;;;;;;;4.93;4.30;;;14.50;58.60;;;;;;5032336;28;20200;-44
2022/07/22 06:58:10;;;;;;;4.53;4.13;;;14.50;58.60;;;;;;5031524;28;20196;-48
2022/07/22 07:00:40;;;;;;;4.85;4.35;;;14.40;58.60;;;;;;5031627;28;20220;-45
2022/07/22 07:03:11;;;;;;;4.60;4.13;;;14.40;58.60;;;;;;5032382;28;20200;-44
2022/07/22 07:05:42;;;;;;;4.80;4.10;;;14.40;58.70;;;;;;5032156;28;20196;-44
2022/07/22 07:08:14;;;;;;;5.70;4.30;;;14.40;58.70;;;;;;5032660;28;20192;-45
2022/07/22 07:10:45;;;;;;;4.80;4.30;;;14.40;58.60;;;;;;5033079;28;20216;-50
2022/07/22 07:13:15;;;;;;;4.72;4.22;;;14.40;58.60;;;;;;5032704;28;20224;-44
2022/07/22 07:15:46;;;;;;;4.45;4.05;;;14.40;58.60;;;;;;5032716;28;20200;-44
2022/07/22 07:18:17;;;;;;;6.53;4.00;;;14.40;58.60;;;;;;5032779;28;20197;-45
2022/07/22 07:20:48;;;;;;;4.88;4.40;;;14.40;58.60;;;;;;5032851;28;20621;-47
2022/07/22 07:23:20;;;;;;;4.82;4.40;;;14.40;58.50;;;;;;5032652;28;20196;-48
2022/07/22 07:25:51;;;;;;;4.93;4.40;;;14.40;58.50;;;;;;5032950;28;20587;-44
2022/07/22 07:28:22;;;;;;;5.63;4.72;;;14.30;58.50;;;;;;5033169;28;20192;-45
2022/07/22 07:30:53;;;;;;;4.72;4.32;;;14.30;58.60;;;;;;5032485;28;20223;-46
2022/07/22 07:33:24;;;;;;;5.63;5.05;;;14.30;58.60;;;;;;5032580;28;20224;-46
2022/07/22 07:35:54;;;;;;;5.60;4.97;;;14.30;58.80;;;;;;5032812;28;20196;-47
2022/07/22 07:38:27;;;;;;;5.70;5.15;;;14.30;58.80;;;;;;5031455;28;20196;-45
2022/07/22 07:40:57;;;;;;;5.80;5.07;;;14.30;58.80;;;;;;5032516;28;20223;-47
2022/07/22 07:43:28;;;;;;;4.95;4.45;;;14.40;58.90;;;;;;5032584;28;20199;-44
2022/07/22 07:45:59;;;;;;;4.63;4.10;;;14.30;58.90;;;;;;5032304;28;20204;-48
2022/07/22 07:48:29;;;;;;;4.82;4.28;;;14.30;58.90;;;;;;5032310;28;20566;-46
2022/07/22 07:51:00;;;;;;;5.38;4.88;;;14.30;58.80;;;;;;5032623;28;20220;-46
2022/07/22 07:53:33;;;;;;;5.47;4.97;;;14.30;58.80;;;;;;5032244;28;20228;-45
2022/07/22 07:56:03;;;;;;;5.15;4.65;;;14.30;58.80;;;;;;5032562;28;20200;-45
2022/07/22 07:58:34;;;;;;;6.00;5.03;;;14.30;58.80;;;;;;5032186;28;20573;-46
2022/07/22 08:01:05;;;;;;;5.38;4.30;;;14.30;58.80;;;;;;5032535;28;20208;-46
2022/07/22 08:03:36;;;;;;;5.50;4.80;;;14.30;58.80;;;;;;5032217;28;20207;-44
2022/07/22 08:06:06;;;;;;;5.72;5.15;;;14.30;59.40;;;;;;5031992;28;20550;-44
2022/07/22 08:08:39;;;;;;;6.40;5.70;;;14.30;58.90;;;;;;5031269;28;20196;-44
2022/07/22 08:11:10;;;;;;;6.00;4.85;;;14.30;58.90;;;;;;5031516;28;20217;-45
2022/07/22 08:13:40;;;;;;;4.97;4.57;;;14.30;58.90;;;;;;5031807;28;20230;-44
2022/07/22 08:16:11;;;;;;;5.03;4.32;;;14.20;58.90;;;;;;5031844;28;20562;-45
2022/07/22 08:18:42;;;;;;;6.85;5.20;;;14.20;58.90;;;;;;5028336;28;20192;-46
2022/07/22 08:21:13;;;;;;;5.47;4.90;;;14.20;58.90;;;;;;5031602;28;20220;-44
2022/07/22 08:23:45;;;;;;;5.25;4.68;;;14.20;58.80;;;;;;5031398;28;20206;-46
2022/07/22 08:26:16;;;;;;;5.07;4.57;;;14.20;58.80;;;;;;5031859;28;20196;-48
2022/07/22 08:28:47;;;;;;;6.55;4.60;;;14.20;58.80;;;;;;5031832;28;20207;-49
2022/07/22 08:31:17;;;;;;;4.45;4.03;;;14.20;58.80;;;;;;5032081;28;20227;-44
2022/07/22 08:33:48;;;;;;;5.30;4.80;;;14.20;58.90;;;;;;5031697;28;20691;-45
2022/07/22 08:36:19;;;;;;;5.25;4.75;;;14.20;58.90;;;;;;5031796;28;20565;-44
2022/07/22 08:38:51;;;;;;;5.30;4.30;;;14.20;58.90;;;;;;5031214;28;20203;-44
2022/07/22 08:41:23;;;;;;;5.60;4.82;;;14.20;58.90;;;;;;5031451;28;20211;-45
2022/07/22 08:43:55;;;;;;;4.50;4.07;;;14.20;58.90;;;;;;5031054;28;20199;-44
2022/07/22 08:46:26;;;;;;;5.80;5.20;;;14.20;58.90;;;;;;5027813;28;20668;-46
2022/07/22 08:48:56;;;;;;;5.13;4.57;;;14.20;58.90;;;;;;5031682;28;20192;-46
2022/07/22 08:51:27;;;;;;;4.70;4.30;;;14.20;58.90;;;;;;5026833;28;20228;-44
2022/07/22 08:54:00;;;;;;;5.55;4.95;;;14.20;58.90;;;;;;5024576;28;20224;-45
2022/07/22 08:56:30;;;;;;;4.57;4.18;;;14.20;58.90;;;;;;5031435;28;20222;-45
2022/07/22 08:59:01;;;;;;;4.85;4.38;;;14.10;58.90;;;;;;5031141;28;20215;-45
2022/07/22 09:01:32;;;;;;;4.90;4.50;;;14.10;58.90;;;;;;5030808;28;20593;-44
2022/07/22 09:04:02;;;;;;;4.70;4.30;;;14.10;58.90;;;;;;5030925;28;20195;-47
2022/07/22 09:06:35;;;;;;;4.95;4.45;;;14.10;58.90;;;;;;5031440;28;20204;-44
2022/07/22 09:09:09;;;;;;;5.32;4.57;;;14.10;58.90;;;;;;5030535;28;20192;-44
2022/07/22 09:11:39;;;;;;;4.97;4.47;;;14.10;59.20;;;;;;5031039;28;20220;-44
2022/07/22 09:14:10;;;;;;;5.25;4.22;;;14.10;59.40;;;;;;5022230;28;20232;-52
2022/07/22 09:16:46;;;;;;;4.63;4.22;;;14.10;59.50;;;;;;5030958;28;20664;-47
2022/07/22 09:19:17;;;;;;;4.57;4.18;;;14.10;59.40;;;;;;5019411;28;20197;-46
2022/07/22 09:21:50;;;;;;;5.05;4.20;;;14.10;59.40;;;;;;5023003;28;20227;-48
2022/07/22 09:24:34;;;;;;;4.78;4.35;;;14.10;59.40;;;;;;5030647;28;20204;-50
2022/07/22 09:27:06;;;;;;;4.97;4.13;;;14.10;59.40;;;;;;5028375;28;20192;-55
2022/07/22 09:29:36;;;;;;;5.20;4.20;;;14.10;59.30;;;;;;5030455;28;20206;-48
2022/07/22 09:32:08;;;;;;;4.90;4.00;;;14.10;59.30;;;;;;5029727;28;20212;-50
2022/07/22 09:34:39;;;;;;;5.25;4.40;;;14.10;59.30;;;;;;5030520;28;20200;-51
2022/07/22 09:37:10;;;;;;;5.78;4.38;;;14.10;59.30;;;;;;5030087;28;20192;-56
2022/07/22 09:39:42;;;;;;;5.32;4.20;;;14.00;59.20;;;;;;5029936;28;20200;-57
2022/07/22 09:42:16;;;;;;;4.70;4.20;;;14.00;59.20;;;;;;5012661;28;20300;-56
2022/07/22 09:44:48;;;;;;;4.65;4.22;;;14.00;59.20;;;;;;5029828;28;20200;-56
2022/07/22 09:47:32;;;;;;;4.72;4.32;;;14.00;59.20;;;;;;5030390;28;20196;-55
2022/07/22 09:50:03;;;;;;;4.40;4.00;;;14.00;59.20;;;;;;5031094;28;20204;-53
2022/07/22 09:52:34;;;;;;;4.38;3.97;;;14.00;59.20;;;;;;5029465;28;20224;-56
2022/07/22 09:55:08;;;;;;;4.20;3.80;;;14.00;59.20;;;;;;5032278;28;20200;-53
2022/07/22 09:57:40;;;;;;;4.97;3.90;;;14.00;59.20;;;;;;5033129;28;20380;-47
2022/07/22 10:00:11;;;;;;;5.07;4.20;;;14.00;59.20;;;;;;5033863;28;20203;-50
2022/07/22 10:02:46;;;;;;;4.75;4.15;;;14.00;59.20;;;;;;5033007;28;20564;-53
2022/07/22 10:05:18;;;;;;;4.38;3.97;;;14.00;59.20;;;;;;5033363;28;20196;-55
2022/07/22 10:07:49;;;;;;;4.32;3.92;;;14.00;59.20;;;;;;5033715;28;20196;-50
2022/07/22 10:10:23;;;;;;;4.57;4.07;;;14.00;59.20;;;;;;5033270;28;20196;-48
2022/07/22 10:12:55;;;;;;;4.57;4.03;;;14.00;59.20;;;;;;5033799;28;20235;-46
2022/07/22 10:15:27;;;;;;;4.50;4.10;;;14.00;59.20;;;;;;5033194;28;20197;-48
2022/07/22 10:18:00;;;;;;;4.45;4.05;;;13.90;59.10;;;;;;5031826;28;20636;-47
2022/07/22 10:20:32;;;;;;;4.20;3.80;;;13.90;59.20;;;;;;5033698;28;20586;-47
2022/07/22 10:23:03;;;;;;;3.95;3.65;;;13.90;59.10;;;;;;5032853;28;20189;-44
2022/07/22 10:25:51;;;;;;;4.68;4.20;;;13.90;59.20;;;;;;5033636;28;20199;-49
2022/07/22 10:28:27;;;;;;;4.32;3.92;;;13.90;59.20;;;;;;5033162;28;20188;-44
2022/07/22 10:31:18;;;;;;;5.20;4.35;;;13.90;59.20;;;;;;5033669;28;20302;-57
2022/07/22 10:33:52;;;;;;;5.80;4.10;;;13.90;59.20;;;;;;5032616;28;20219;-55
2022/07/22 10:36:38;;;;;;;4.68;4.18;;;13.90;59.20;;;;;;5033060;28;20196;-51
2022/07/22 10:39:11;;;;;;;5.20;4.07;;;13.90;59.20;;;;;;5032264;28;20537;-53
2022/07/22 10:41:45;;;;;;;4.45;3.83;;;13.90;59.20;;;;;;5033286;28;20385;-51
2022/07/22 10:44:16;;;;;;;4.15;3.60;;;13.90;59.20;;;;;;5032954;28;20192;-57
2022/07/22 10:46:55;;;;;;;4.53;4.07;;;13.90;59.20;;;;;;5033119;28;20200;-59
2022/07/22 10:49:28;;;;;;;4.00;3.60;;;13.90;59.20;;;;;;5032096;28;20202;-55
2022/07/22 10:52:20;;;;;;;4.00;3.60;;;13.90;59.20;;;;;;5028753;28;20216;-48
2022/07/22 10:55:22;;;;;;;4.32;3.92;;;13.90;59.30;;;;;;5032552;28;20672;-58
2022/07/22 10:57:54;;;;;;;4.40;3.95;;;13.80;59.20;;;;;;5033011;28;20282;-55
2022/07/22 11:00:25;;;;;;;4.10;3.70;;;13.80;59.20;;;;;;5032298;28;20201;-58
2022/07/22 11:02:56;;;;;;;4.57;4.00;;;13.90;59.20;;;;;;5032786;28;20546;-56
2022/07/22 11:05:30;;;;;;;4.30;3.90;;;13.80;59.20;;;;;;5032351;28;20200;-57
2022/07/22 11:08:01;;;;;;;3.70;3.40;;;13.80;59.30;;;;;;5032347;28;20258;-53
2022/07/22 11:10:32;;;;;;;4.18;3.78;;;13.90;59.30;;;;;;5032031;28;20703;-58
2022/07/22 11:13:04;;;;;;;3.88;3.33;;;13.80;59.80;;;;;;5032755;28;20600;-48
2022/07/22 11:15:35;;;;;;;3.50;3.20;;;13.80;59.20;;;;;;5033556;28;20200;-55
2022/07/22 11:18:06;;;;;;;4.43;4.03;;;13.80;59.20;;;;;;5032743;28;20192;-52
2022/07/22 11:20:37;;;;;;;4.05;3.40;;;13.80;59.20;;;;;;5032390;28;20215;-51
2022/07/22 11:23:07;;;;;;;4.50;4.10;;;13.80;59.20;;;;;;5032118;28;20215;-50
2022/07/22 11:25:38;;;;;;;3.90;3.50;;;13.80;59.20;;;;;;5032371;28;20196;-54
2022/07/22 11:28:11;;;;;;;4.10;3.70;;;13.80;59.20;;;;;;5032261;28;20196;-52
2022/07/22 11:30:41;;;;;;;3.50;3.20;;;13.80;59.20;;;;;;5032312;28;20247;-49
2022/07/22 11:33:12;;;;;;;3.58;3.28;;;13.80;59.20;;;;;;5032155;28;20230;-51
2022/07/22 11:36:02;;;;;;;4.07;3.65;;;13.80;59.20;;;;;;5033124;28;20669;-47
2022/07/22 11:38:44;;;;;;;4.57;4.10;;;13.70;59.20;;;;;;5032066;28;20562;-51
2022/07/22 11:41:20;;;;;;;3.85;3.45;;;13.80;59.30;;;;;;5032369;28;20219;-52
2022/07/22 11:43:53;;;;;;;3.90;3.50;;;13.70;59.20;;;;;;5030947;28;20199;-55
2022/07/22 11:46:25;;;;;;;3.85;3.50;;;13.70;59.20;;;;;;5031273;28;20215;-57
2022/07/22 11:48:56;;;;;;;4.03;3.63;;;13.80;59.20;;;;;;5030549;28;20718;-55
2022/07/22 11:51:32;;;;;;;3.88;3.40;;;13.70;59.20;;;;;;5031421;28;20220;-52
2022/07/22 11:54:03;;;;;;;3.67;3.38;;;13.70;59.20;;;;;;5032412;28;20219;-56
2022/07/22 11:56:34;;;;;;;3.85;3.33;;;13.70;59.20;;;;;;5031650;28;20200;-57
2022/07/22 11:59:09;;;;;;;4.07;3.42;;;13.70;59.30;;;;;;5032083;28;20219;-59
2022/07/22 12:01:41;;;;;;;3.80;3.38;;;13.70;59.30;;;;;;5031542;28;20220;-49
2022/07/22 12:04:12;;;;;;;3.85;3.30;;;13.70;59.20;;;;;;5031993;28;20193;-56
2022/07/22 12:06:45;;;;;;;3.85;3.47;;;13.70;59.30;;;;;;5031802;28;20200;-52
2022/07/22 12:09:17;;;;;;;4.00;3.60;;;13.70;59.30;;;;;;5031789;28;20200;-58
2022/07/22 12:11:50;;;;;;;3.22;2.88;;;13.70;59.30;;;;;;5031933;28;20220;-49
2022/07/22 12:14:24;;;;;;;3.70;3.13;;;13.60;59.30;;;;;;5031856;28;20235;-48
2022/07/22 12:16:59;;;;;;;3.63;3.20;;;13.70;59.50;;;;;;5030706;28;20207;-45
2022/07/22 12:19:32;;;;;;;3.90;3.00;;;13.70;59.50;;;;;;5030220;28;20195;-45
2022/07/22 12:22:03;;;;;;;3.90;3.50;;;13.70;59.40;;;;;;5027904;28;20270;-47
2022/07/22 12:24:36;;;;;;;3.53;3.22;;;13.70;59.40;;;;;;5010674;28;20193;-46
2022/07/22 12:27:08;;;;;;;3.63;3.33;;;13.70;59.40;;;;;;5026281;28;20204;-45
2022/07/22 12:29:57;;;;;;;3.70;3.30;;;13.70;59.30;;;;;;5030176;28;20200;-45
2022/07/22 12:32:30;;;;;;;3.90;3.00;;;13.70;59.30;;;;;;5030022;28;20235;-47
2022/07/22 12:35:02;;;;;;;2.75;2.55;;;13.70;59.30;;;;;;5029917;28;20220;-51
2022/07/22 12:37:34;;;;;;;2.92;2.72;;;13.60;59.20;;;;;;5029972;28;20200;-46
2022/07/22 12:40:07;;;;;;;3.33;3.03;;;13.60;59.30;;;;;;5030324;28;20210;-44
2022/07/22 12:42:39;;;;;;;4.10;3.50;;;13.60;59.20;;;;;;5029769;28;20712;-45
2022/07/22 12:45:14;;;;;;;2.90;2.70;;;13.60;59.20;;;;;;5029921;28;20211;-51
2022/07/22 12:47:47;;;;;;;3.70;2.90;;;13.60;59.20;;;;;;5030046;28;20203;-45
2022/07/22 12:50:26;;;;;;;3.17;2.78;;;13.60;59.30;;;;;;5029644;28;20745;-45
2022/07/22 12:52:59;;;;;;;3.40;3.10;;;13.60;59.30;;;;;;5026594;28;20196;-45
2022/07/22 12:55:30;;;;;;;3.00;2.80;;;13.60;59.30;;;;;;5010998;28;20220;-44
2022/07/22 12:58:00;;;;;;;3.75;2.92;;;13.60;59.30;;;;;;5030055;28;20203;-44
2022/07/22 13:00:34;;;;;;;3.17;2.80;;;13.50;59.30;;;;;;5029983;28;20212;-44
2022/07/22 13:03:06;;;;;;;3.50;3.20;;;13.50;59.30;;;;;;5029604;28;20207;-44
2022/07/22 13:05:37;;;;;;;3.30;3.00;;;13.50;59.20;;;;;;5029341;28;20200;-44
2022/07/22 13:08:08;;;;;;;3.08;2.78;;;13.60;59.20;;;;;;5029243;28;20188;-44
2022/07/22 13:10:39;;;;;;;3.58;3.25;;;13.50;59.20;;;;;;5029209;28;20223;-47
2022/07/22 13:13:10;;;;;;;3.35;3.05;;;13.50;59.20;;;;;;5029395;28;20203;-45